Redwood City, CA (94061)

4:34 PM PDT on September 30, 2016 (GMT -0700)
Central Portola Valley | | Change Station

Elev 660 ft 37.39 °N, 122.21 °W | Updated 5 minutes ago

Partly Cloudy
Partly Cloudy
64.9 °F
Feels Like 64.9 °F
N
2.0
Wind Variable Wind from North
Gusts 3.0 mph

Today
High -- | Low -- °F
--% Chance of Precip.
Yesterday
High -- | Low -- °F
Precip. -- in
Pressure 30.11 in
Visibility 10.0 miles
Clouds Few 2500 ft
Few 25000 ft
Dew Point 46 °F
Humidity 50%
Rainfall 0.00 in
Snow Depth Not available.
7:04 AM 6:52 PM
Waning Crescent, 0% visible
METAR KSQL 302247Z 27012G20KT 10SM FEW025 FEW250 18/05 A3011
Pressure 30.11 in
Visibility 10.0 miles
Clouds Few 2500 ft
Few 25000 ft
Dew Point 46 °F
Humidity 50%
Rainfall 0.00 in
Snow Depth Not available.
7:04 AM 6:52 PM
Waning Crescent, 0% visible
METAR KSQL 302247Z 27012G20KT 10SM FEW025 FEW250 18/05 A3011

10-Day Weather Forecast

Almanac

Astronomy

Sep. 30, 2016 Rise Set
Actual Time
Civil Twilight
Nautical Twilight
Astronomical Twilight
Moon
Length of Visible Light
Length of Day
Tomorrow will be .
, % of the Moon is Illuminated

Today's Extremes

State Highs State Lows

Community

WunderPhotos

Upload Photos

1,942,819 photos uploaded!

WunderBlog® & News

Nearby

Air Quality

  Air Quality AQ Index Pollutant
Not available.

Snow Depth

Station Depth Elevation

Earthquake Activity

City Distance Mag. Time & Date
Minimum magnitude displayed is 2.5.

Coastal Water Temperatures

Place Temperature

Stations

Nearby Weather Stations

Station Location Temp. Windchill Dew Point Humidity Wind Precip. Elev Updated Type
                   

Watches & Warnings

There are currently no watches in effect.